Time;durP1;ratioP1;P1;durP2;ratioP2;P2;SDS_P1;SDS_P2;PMS_P1;PMS_P2;Temp;Humidity;BMP_temperature;BMP_pressure;BME280_temperature;BME280_humidity;BME280_pressure;Samples;Min_cycle;Max_cycle;Signal;HPM_P1;HPM_P2
2023/08/02 00:02:13;;;;;;;3.53;1.92;;;;;;;22.80;55.46;98058.88;5133882;27;20034;-46
2023/08/02 00:04:41;;;;;;;2.67;1.80;;;;;;;22.77;55.88;98057.59;5134887;27;20488;-47
2023/08/02 00:07:07;;;;;;;7.53;1.83;;;;;;;22.76;55.81;98064.03;5135172;27;20168;-47
2023/08/02 00:09:33;;;;;;;3.58;2.05;;;;;;;22.71;56.06;98064.91;5135087;27;20035;-46
2023/08/02 00:12:00;;;;;;;4.15;1.90;;;;;;;22.69;56.36;98064.41;5135053;27;20027;-46
2023/08/02 00:14:26;;;;;;;3.60;1.80;;;;;;;22.71;56.36;98064.13;5132588;27;20486;-47
2023/08/02 00:16:51;;;;;;;2.83;1.80;;;;;;;22.72;56.11;98055.81;5134846;27;20023;-46
2023/08/02 00:19:17;;;;;;;2.72;1.92;;;;;;;22.72;55.87;98039.75;5134853;27;20099;-46
2023/08/02 00:21:43;;;;;;;3.40;1.75;;;;;;;22.72;56.30;98039.75;5134769;27;20072;-47
2023/08/02 00:24:09;;;;;;;3.35;1.75;;;;;;;22.66;56.42;98037.47;5134746;27;20090;-46
2023/08/02 00:26:35;;;;;;;6.43;2.15;;;;;;;22.63;56.69;98046.09;5133407;27;20033;-47
2023/08/02 00:29:01;;;;;;;5.90;1.73;;;;;;;22.60;56.26;98036.78;5133413;27;20098;-47
2023/08/02 00:31:26;;;;;;;3.72;1.65;;;;;;;22.56;56.40;98038.44;5134645;27;20047;-47
2023/08/02 00:33:53;;;;;;;4.63;1.95;;;;;;;22.55;56.89;98042.19;5134583;27;20019;-46
2023/08/02 00:36:19;;;;;;;8.02;1.90;;;;;;;22.56;56.80;98034.97;5134454;27;20019;-46
2023/08/02 00:38:45;;;;;;;2.58;1.77;;;;;;;22.58;56.71;98032.78;5134487;27;20030;-46
2023/08/02 00:41:10;;;;;;;3.88;2.00;;;;;;;22.58;56.09;98030.09;5133080;27;20500;-46
2023/08/02 00:43:43;;;;;;;3.97;1.90;;;;;;;22.56;56.34;98030.44;5134433;27;20031;-47
2023/08/02 00:46:10;;;;;;;3.55;1.75;;;;;;;22.68;55.98;98028.06;5133016;27;20023;-46
2023/08/02 00:48:37;;;;;;;2.47;1.92;;;;;;;22.68;55.31;98032.63;5132536;27;20569;-46
2023/08/02 00:51:04;;;;;;;5.00;2.00;;;;;;;22.68;55.79;98017.38;5134183;27;20027;-47
2023/08/02 00:53:30;;;;;;;3.13;1.73;;;;;;;22.67;55.43;98015.75;5132813;27;20531;-47
2023/08/02 00:55:57;;;;;;;4.22;2.05;;;;;;;22.63;55.65;98013.97;5132816;27;20076;-47
2023/08/02 00:58:24;;;;;;;6.53;2.90;;;;;;;22.66;55.80;98013.41;5132848;27;20451;-47
2023/08/02 01:00:50;;;;;;;6.57;2.65;;;;;;;22.70;55.63;98012.50;5132673;27;20489;-47
2023/08/02 01:03:15;;;;;;;3.88;2.45;;;;;;;22.67;55.45;98004.28;5133912;27;20023;-47
2023/08/02 01:05:47;;;;;;;3.25;1.67;;;;;;;22.69;54.41;97996.75;5133717;27;20047;-46
2023/08/02 01:08:22;;;;;;;7.53;2.35;;;;;;;22.87;54.84;97998.53;5133977;27;20510;-47
2023/08/02 01:11:03;;;;;;;10.05;2.65;;;;;;;23.11;53.42;97995.66;5132516;27;20031;-46
2023/08/02 01:13:30;;;;;;;6.57;3.42;;;;;;;23.51;52.46;97987.06;5132525;27;20059;-47
2023/08/02 01:15:58;;;;;;;12.23;2.90;;;;;;;23.66;51.92;97986.75;5133601;27;20023;-46
2023/08/02 01:18:24;;;;;;;10.18;3.00;;;;;;;23.81;50.87;97969.53;5132632;27;20107;-46
2023/08/02 01:20:50;;;;;;;5.43;2.70;;;;;;;23.93;49.76;97972.44;5132253;27;20476;-47
2023/08/02 01:23:15;;;;;;;5.40;2.08;;;;;;;24.18;49.02;97980.94;5132263;27;20063;-47
2023/08/02 01:25:44;;;;;;;5.40;2.50;;;;;;;24.32;48.22;97968.25;5132487;27;20027;-46
2023/08/02 01:28:19;;;;;;;4.45;1.73;;;;;;;24.37;47.34;97967.34;5133517;27;20015;-47
2023/08/02 01:30:47;;;;;;;7.00;2.25;;;;;;;24.40;47.36;97961.34;5133492;27;20110;-47
2023/08/02 01:33:14;;;;;;;7.85;2.30;;;;;;;24.59;46.82;97944.25;5132301;27;20038;-47
2023/08/02 01:35:40;;;;;;;3.33;1.83;;;;;;;24.62;46.34;97940.94;5133242;27;20055;-47
2023/08/02 01:38:06;;;;;;;3.72;1.70;;;;;;;24.43;46.01;97936.59;5132013;27;20082;-47
2023/08/02 01:40:32;;;;;;;2.55;1.70;;;;;;;24.21;46.30;97942.03;5133323;27;20102;-47
2023/08/02 01:42:57;;;;;;;5.40;2.35;;;;;;;24.12;46.69;97940.06;5131926;27;20114;-46
2023/08/02 01:45:23;;;;;;;9.10;2.13;;;;;;;24.24;46.69;97947.53;5131828;27;20035;-46
2023/08/02 01:47:51;;;;;;;7.53;2.08;;;;;;;24.23;46.26;97939.81;5131852;27;20085;-46
2023/08/02 01:50:16;;;;;;;9.45;2.90;;;;;;;24.31;46.57;97937.19;5133163;27;20095;-46
2023/08/02 01:52:42;;;;;;;9.05;1.98;;;;;;;24.70;46.51;97932.13;5133398;27;20128;-46
2023/08/02 01:55:08;;;;;;;5.30;2.00;;;;;;;24.84;45.93;97921.28;5133135;27;20019;-47
2023/08/02 01:57:34;;;;;;;11.57;2.33;;;;;;;24.96;45.77;97920.66;5132979;27;20502;-47
2023/08/02 02:00:00;;;;;;;5.80;1.80;;;;;;;25.05;45.24;97916.91;5132301;27;20060;-47
2023/08/02 02:02:25;;;;;;;7.75;3.35;;;;;;;25.01;45.21;97915.13;5131557;27;20109;-46
2023/08/02 02:04:51;;;;;;;6.18;2.33;;;;;;;24.91;45.30;97908.16;5131307;27;20036;-46
2023/08/02 02:07:17;;;;;;;7.88;2.10;;;;;;;24.78;45.22;97903.75;5132941;27;20019;-47
2023/08/02 02:09:43;;;;;;;4.07;1.83;;;;;;;24.58;45.86;97905.91;5131540;27;20028;-46
2023/08/02 02:12:08;;;;;;;2.45;1.50;;;;;;;24.49;45.90;97900.47;5132792;27;20106;-47
2023/08/02 02:14:34;;;;;;;3.40;1.80;;;;;;;24.51;45.79;97902.91;5132826;27;20373;-46
2023/08/02 02:17:00;;;;;;;2.65;1.90;;;;;;;24.50;45.09;97907.44;5132686;27;20058;-47
2023/08/02 02:19:25;;;;;;;7.47;2.00;;;;;;;24.32;45.26;97905.78;5132732;28;20106;-47
2023/08/02 02:21:51;;;;;;;4.20;1.67;;;;;;;24.07;45.42;97907.25;5132746;27;20147;-46
2023/08/02 02:24:17;;;;;;;3.45;1.65;;;;;;;23.85;45.46;97903.50;5132746;27;20027;-46
2023/08/02 02:26:42;;;;;;;9.13;2.55;;;;;;;23.77;45.55;97912.28;5132885;28;20050;-46
2023/08/02 02:29:08;;;;;;;6.78;2.00;;;;;;;23.75;45.68;97909.09;5131366;28;20488;-46
2023/08/02 02:31:34;;;;;;;5.25;1.83;;;;;;;23.77;45.56;97900.75;5132667;27;20015;-47
2023/08/02 02:34:00;;;;;;;6.72;2.00;;;;;;;23.74;45.23;97891.41;5131197;28;20065;-46
2023/08/02 02:36:25;;;;;;;3.35;1.77;;;;;;;23.70;45.15;97901.16;5132476;28;20071;-47
2023/08/02 02:38:51;;;;;;;3.08;1.80;;;;;;;23.66;44.94;97895.66;5132564;27;20029;-47
2023/08/02 02:41:17;;;;;;;4.53;1.80;;;;;;;23.64;44.63;97899.72;5132521;27;20056;-47
2023/08/02 02:43:43;;;;;;;9.02;2.67;;;;;;;23.62;44.61;97893.88;5131144;28;20484;-47
2023/08/02 02:46:09;;;;;;;3.83;1.73;;;;;;;23.56;44.76;97897.78;5132479;27;20062;-47
2023/08/02 02:48:34;;;;;;;7.13;2.08;;;;;;;23.52;44.84;97900.25;5132518;27;20441;-47
2023/08/02 02:51:00;;;;;;;7.75;1.75;;;;;;;23.52;44.75;97897.56;5131165;28;20420;-47
2023/08/02 02:53:26;;;;;;;7.00;1.88;;;;;;;23.55;45.07;97898.88;5131116;28;20444;-47
2023/08/02 02:55:51;;;;;;;5.05;1.85;;;;;;;23.56;44.84;97897.78;5132267;28;20051;-47
2023/08/02 02:58:17;;;;;;;2.47;2.08;;;;;;;23.50;44.99;97894.41;5131056;28;20481;-47
2023/08/02 03:00:43;;;;;;;2.97;2.05;;;;;;;23.40;44.85;97890.13;5132619;27;20027;-47
2023/08/02 03:03:09;;;;;;;4.28;2.00;;;;;;;23.32;45.53;97894.31;5132381;27;20026;-47
2023/08/02 03:05:34;;;;;;;3.80;1.83;;;;;;;23.30;45.45;97884.97;5130865;28;20046;-47
2023/08/02 03:08:00;;;;;;;4.68;2.17;;;;;;;23.27;45.32;97883.69;5130915;28;20118;-47
2023/08/02 03:10:26;;;;;;;4.65;2.20;;;;;;;23.22;45.70;97885.69;5132316;27;20019;-47
2023/08/02 03:12:51;;;;;;;2.80;1.73;;;;;;;23.13;45.66;97878.38;5133815;27;20019;-47
2023/08/02 03:15:17;;;;;;;6.53;2.10;;;;;;;23.03;45.79;97875.94;5134729;27;20027;-47
2023/08/02 03:17:43;;;;;;;4.90;1.88;;;;;;;22.94;46.28;97875.84;5134659;27;20083;-47
2023/08/02 03:20:09;;;;;;;4.22;2.00;;;;;;;22.87;46.55;97869.31;5134613;27;20106;-47
2023/08/02 03:22:34;;;;;;;3.55;1.90;;;;;;;22.81;46.57;97871.31;5136189;27;20149;-47
2023/08/02 03:25:00;;;;;;;4.78;2.05;;;;;;;22.74;46.62;97869.03;5134495;27;20560;-47
2023/08/02 03:27:26;;;;;;;7.00;2.30;;;;;;;22.67;46.88;97881.25;5135890;27;20046;-47
2023/08/02 03:29:51;;;;;;;4.68;2.00;;;;;;;22.61;46.80;97877.09;5134449;27;20042;-47
2023/08/02 03:32:17;;;;;;;3.25;2.00;;;;;;;22.56;47.32;97869.16;5135703;27;20023;-46
2023/08/02 03:34:43;;;;;;;5.25;2.28;;;;;;;22.49;47.60;97873.03;5117243;27;20030;-46
2023/08/02 03:37:09;;;;;;;4.18;2.25;;;;;;;22.47;47.71;97869.06;5135621;27;20023;-46
2023/08/02 03:39:34;;;;;;;4.13;2.08;;;;;;;22.37;47.94;97866.59;5134311;27;20100;-46
2023/08/02 03:42:00;;;;;;;4.30;2.20;;;;;;;22.25;48.27;97865.22;5134229;27;20070;-47
2023/08/02 03:44:26;;;;;;;5.22;2.28;;;;;;;22.18;48.43;97866.69;5135842;27;20059;-47
2023/08/02 03:46:52;;;;;;;3.97;2.55;;;;;;;22.16;48.33;97866.19;5134185;27;20496;-46
2023/08/02 03:49:19;;;;;;;4.68;2.17;;;;;;;22.13;48.49;97863.03;5135469;27;20051;-47
2023/08/02 03:51:46;;;;;;;3.28;2.25;;;;;;;22.13;48.36;97856.84;5135423;27;20095;-46
2023/08/02 03:54:11;;;;;;;3.53;2.15;;;;;;;22.12;48.69;97853.41;5135347;27;20111;-47
2023/08/02 03:56:37;;;;;;;4.00;1.88;;;;;;;22.12;48.86;97863.31;5133840;27;20468;-47
2023/08/02 03:59:03;;;;;;;3.70;2.42;;;;;;;22.11;48.49;97859.84;5135311;27;20031;-47
2023/08/02 04:01:28;;;;;;;2.20;1.73;;;;;;;22.11;48.55;97859.03;5135176;27;20541;-47
2023/08/02 04:03:54;;;;;;;3.58;2.05;;;;;;;22.09;48.56;97853.19;5135059;27;20503;-47
2023/08/02 04:06:20;;;;;;;4.13;2.08;;;;;;;22.08;48.68;97855.09;5134905;27;20055;-46
2023/08/02 04:08:47;;;;;;;5.97;2.22;;;;;;;22.08;48.75;97843.59;5135128;27;20019;-47
2023/08/02 04:11:13;;;;;;;5.00;2.33;;;;;;;22.06;48.49;97851.91;5133812;27;20098;-47
2023/08/02 04:13:39;;;;;;;4.43;2.08;;;;;;;22.04;48.64;97856.75;5133659;27;20027;-47
2023/08/02 04:16:04;;;;;;;7.55;2.80;;;;;;;22.03;48.69;97859.72;5133561;27;20083;-47
2023/08/02 04:18:30;;;;;;;5.57;2.08;;;;;;;22.01;48.69;97856.56;5134879;27;20034;-46
2023/08/02 04:20:59;;;;;;;3.60;1.98;;;;;;;21.98;48.76;97855.28;5133470;27;20027;-46
2023/08/02 04:23:28;;;;;;;3.67;2.40;;;;;;;21.98;49.14;97865.19;5134046;27;20055;-47
2023/08/02 04:25:53;;;;;;;2.75;1.98;;;;;;;21.96;49.03;97859.34;5133438;27;20502;-46
2023/08/02 04:28:19;;;;;;;4.85;2.05;;;;;;;21.94;49.40;97847.06;5133349;27;20109;-46
2023/08/02 04:30:53;;;;;;;3.83;2.00;;;;;;;21.92;49.45;97849.22;5134510;27;20019;-47
2023/08/02 04:33:20;;;;;;;6.90;2.50;;;;;;;21.93;49.45;97858.84;5134758;27;20023;-47
2023/08/02 04:35:46;;;;;;;4.53;2.17;;;;;;;21.92;49.50;97859.91;5134408;27;20019;-46
2023/08/02 04:38:11;;;;;;;10.45;2.55;;;;;;;21.91;49.46;97858.34;5134517;27;20015;-47
2023/08/02 04:40:38;;;;;;;7.82;2.50;;;;;;;21.92;49.71;97861.81;5134402;27;20046;-47
2023/08/02 04:43:04;;;;;;;6.38;2.28;;;;;;;21.94;49.90;97865.75;5133350;27;20027;-47
2023/08/02 04:45:30;;;;;;;12.40;3.53;;;;;;;21.98;49.64;97854.50;5134399;27;20406;-47
2023/08/02 04:47:55;;;;;;;4.63;2.72;;;;;;;22.07;49.19;97858.84;5134356;27;20092;-47
2023/08/02 04:50:21;;;;;;;7.18;2.47;;;;;;;22.28;49.46;97864.63;5134213;27;20027;-47
2023/08/02 04:52:47;;;;;;;9.93;2.38;;;;;;;22.65;48.90;97859.34;5132843;27;20102;-47
2023/08/02 04:55:13;;;;;;;6.07;2.80;;;;;;;22.91;47.91;97864.94;5134186;27;20023;-47
2023/08/02 04:57:39;;;;;;;24.98;5.85;;;;;;;23.84;46.26;97863.63;5134047;27;20541;-47
2023/08/02 05:00:06;;;;;;;16.42;3.85;;;;;;;24.99;43.57;97852.91;5133981;27;20404;-47
2023/08/02 05:02:36;;;;;;;4.80;2.40;;;;;;;25.90;41.37;97849.22;5134073;27;20062;-47
2023/08/02 05:05:05;;;;;;;6.13;2.88;;;;;;;26.74;39.14;97851.34;5133811;27;20069;-47
2023/08/02 05:07:33;;;;;;;8.27;2.72;;;;;;;27.43;37.93;97851.94;5133975;27;20027;-47
2023/08/02 05:10:03;;;;;;;6.25;2.67;;;;;;;27.59;37.37;97847.50;5133888;27;20530;-47
2023/08/02 05:12:39;;;;;;;6.45;2.30;;;;;;;26.51;38.76;97846.22;5134196;27;20114;-48
2023/08/02 05:15:06;;;;;;;7.35;2.13;;;;;;;25.51;40.47;97853.72;5133795;27;20023;-47
2023/08/02 05:17:32;;;;;;;7.13;2.35;;;;;;;24.82;41.71;97851.03;5133592;27;20023;-46
2023/08/02 05:19:58;;;;;;;4.25;2.00;;;;;;;24.33;42.77;97859.88;5133702;27;20026;-46
2023/08/02 05:22:23;;;;;;;9.68;2.38;;;;;;;24.53;43.03;97860.44;5132240;27;20039;-46
2023/08/02 05:24:50;;;;;;;4.85;2.10;;;;;;;24.80;42.50;97862.06;5132226;27;20019;-48
2023/08/02 05:27:16;;;;;;;13.50;2.85;;;;;;;25.27;41.86;97858.78;5133518;27;20054;-47
2023/08/02 05:29:41;;;;;;;3.63;2.20;;;;;;;26.22;39.56;97856.97;5133480;27;20490;-47
2023/08/02 05:32:07;;;;;;;5.95;3.45;;;;;;;27.18;37.83;97854.47;5133436;27;20550;-47
2023/08/02 05:34:33;;;;;;;4.00;2.90;;;;;;;28.20;35.92;97844.09;5133384;27;20507;-46
2023/08/02 05:36:58;;;;;;;4.88;2.20;;;;;;;29.03;34.35;97843.88;5133280;27;20392;-47
2023/08/02 05:39:24;;;;;;;4.38;2.55;;;;;;;29.67;33.43;97853.75;5132076;27;20072;-47
2023/08/02 05:41:50;;;;;;;7.38;2.53;;;;;;;30.26;32.68;97844.03;5131985;27;20031;-47
2023/08/02 05:44:15;;;;;;;6.70;2.83;;;;;;;31.11;31.22;97851.72;5133250;27;20025;-47
2023/08/02 05:46:41;;;;;;;8.15;2.63;;;;;;;31.71;30.06;97851.28;5131938;27;20038;-47
2023/08/02 05:49:07;;;;;;;4.60;2.70;;;;;;;31.25;30.58;97843.06;5133139;27;20019;-47
2023/08/02 05:51:32;;;;;;;5.35;3.00;;;;;;;29.87;32.45;97854.69;5133154;27;20027;-46
2023/08/02 05:53:58;;;;;;;6.05;2.75;;;;;;;29.75;33.11;97843.94;5133126;27;20042;-47
2023/08/02 05:56:25;;;;;;;6.93;2.90;;;;;;;30.84;31.66;97848.03;5133247;27;20027;-47
2023/08/02 05:58:50;;;;;;;5.15;3.22;;;;;;;31.43;30.57;97849.63;5133021;27;20111;-47
2023/08/02 06:01:16;;;;;;;3.53;2.85;;;;;;;31.79;29.81;97852.19;5132975;27;20059;-47
2023/08/02 06:03:42;;;;;;;3.97;2.63;;;;;;;32.45;29.18;97845.50;5133160;27;20079;-47
2023/08/02 06:06:08;;;;;;;5.93;2.80;;;;;;;32.23;29.17;97844.41;5131384;27;20051;-47
2023/08/02 06:08:33;;;;;;;5.95;3.25;;;;;;;31.31;30.00;97840.84;5133172;27;20365;-47
2023/08/02 06:11:01;;;;;;;3.65;2.85;;;;;;;31.80;29.73;97834.78;5132900;27;20485;-47
2023/08/02 06:13:27;;;;;;;6.43;3.35;;;;;;;32.58;28.19;97831.75;5132883;27;20026;-47
2023/08/02 06:15:53;;;;;;;5.47;2.92;;;;;;;33.00;27.96;97839.66;5132695;27;20031;-47
2023/08/02 06:18:18;;;;;;;6.05;2.90;;;;;;;33.74;26.57;97826.47;5131501;28;20370;-47
2023/08/02 06:20:44;;;;;;;2.83;2.50;;;;;;;34.07;25.69;97828.31;5131383;28;20031;-47
2023/08/02 06:23:10;;;;;;;6.78;2.83;;;;;;;34.33;25.74;97830.09;5132717;28;20453;-47
2023/08/02 06:25:35;;;;;;;5.28;2.78;;;;;;;34.34;25.85;97825.41;5132665;27;20029;-47
2023/08/02 06:28:01;;;;;;;6.97;2.85;;;;;;;34.55;25.71;97817.38;5131409;28;20023;-47
2023/08/02 06:30:27;;;;;;;4.45;2.30;;;;;;;34.65;25.15;97818.59;5132588;27;20032;-47
2023/08/02 06:32:53;;;;;;;9.75;2.95;;;;;;;34.91;25.21;97831.16;5132899;27;20447;-47
2023/08/02 06:35:19;;;;;;;4.45;2.35;;;;;;;35.48;24.45;97829.81;5132623;27;20114;-47
2023/08/02 06:37:47;;;;;;;2.85;2.00;;;;;;;36.08;23.53;97826.34;5132489;28;20080;-47
2023/08/02 06:40:13;;;;;;;10.80;3.00;;;;;;;36.17;23.12;97825.97;5132537;27;20031;-47
2023/08/02 06:42:39;;;;;;;8.23;2.65;;;;;;;36.14;23.51;97826.72;5132532;27;20020;-48
2023/08/02 06:45:05;;;;;;;6.97;2.90;;;;;;;36.29;23.04;97822.06;5132547;28;20019;-47
2023/08/02 06:47:31;;;;;;;8.32;3.00;;;;;;;36.37;23.29;97832.56;5133739;27;20027;-47
2023/08/02 06:49:56;;;;;;;4.50;2.55;;;;;;;36.24;23.06;97822.44;5135246;27;20400;-47
2023/08/02 06:52:22;;;;;;;6.43;2.85;;;;;;;36.12;22.90;97820.88;5136527;27;20023;-47
2023/08/02 06:54:52;;;;;;;5.85;3.15;;;;;;;36.01;23.09;97818.16;5136517;27;20023;-47
2023/08/02 06:57:22;;;;;;;8.18;2.97;;;;;;;36.18;23.54;97813.88;5136409;27;20015;-47
2023/08/02 06:59:50;;;;;;;6.60;3.10;;;;;;;36.48;23.08;97821.59;5136702;27;20064;-47
2023/08/02 07:02:17;;;;;;;5.22;2.50;;;;;;;36.51;23.11;97817.31;5135091;27;20019;-47
2023/08/02 07:04:43;;;;;;;3.50;2.58;;;;;;;36.73;22.22;97813.38;5117553;27;20493;-48
2023/08/02 07:07:09;;;;;;;5.05;2.60;;;;;;;36.73;22.40;97829.78;5136300;27;20054;-47
2023/08/02 07:09:34;;;;;;;8.73;2.97;;;;;;;36.46;22.99;97815.75;5136261;27;20019;-47
2023/08/02 07:12:00;;;;;;;7.47;2.75;;;;;;;36.35;23.23;97810.34;5135110;27;20023;-47
2023/08/02 07:14:25;;;;;;;6.38;3.03;;;;;;;36.38;22.91;97814.22;5136192;27;20041;-47
2023/08/02 07:16:51;;;;;;;9.80;2.80;;;;;;;36.12;23.31;97818.13;5134681;27;20027;-48
2023/08/02 07:19:17;;;;;;;6.10;2.53;;;;;;;35.82;23.45;97815.81;5136089;27;20489;-48
2023/08/02 07:21:42;;;;;;;6.40;2.53;;;;;;;35.61;23.73;97799.00;5135958;27;20153;-47
2023/08/02 07:24:08;;;;;;;10.10;3.00;;;;;;;35.77;24.15;97800.63;5134695;27;20053;-48
2023/08/02 07:26:34;;;;;;;12.77;5.28;;;;;;;35.60;23.75;97811.13;5134549;27;20107;-47
2023/08/02 07:28:59;;;;;;;8.60;3.28;;;;;;;35.18;24.61;97800.91;5135945;27;20023;-47
2023/08/02 07:31:25;;;;;;;8.13;2.75;;;;;;;34.89;24.94;97800.00;5135890;27;20015;-48
2023/08/02 07:33:51;;;;;;;7.88;2.80;;;;;;;34.54;25.01;97804.88;5134461;27;20023;-47
2023/08/02 07:36:18;;;;;;;6.85;2.42;;;;;;;34.30;25.90;97809.03;5135708;27;20365;-47
2023/08/02 07:38:45;;;;;;;9.02;2.83;;;;;;;34.71;25.56;97787.09;5135714;27;20020;-47
2023/08/02 07:41:11;;;;;;;11.50;3.05;;;;;;;35.44;24.87;97783.41;5135656;27;20034;-47
2023/08/02 07:43:37;;;;;;;3.53;2.65;;;;;;;36.24;23.84;97781.47;5135621;27;20387;-47
2023/08/02 07:46:02;;;;;;;8.10;3.00;;;;;;;36.76;23.45;97796.19;5135555;27;20493;-47
2023/08/02 07:48:28;;;;;;;3.95;2.70;;;;;;;37.45;22.28;97801.28;5135460;27;20489;-47
2023/08/02 07:50:54;;;;;;;9.40;3.25;;;;;;;37.72;22.57;97805.03;5134136;27;20039;-47
2023/08/02 07:53:20;;;;;;;4.30;2.35;;;;;;;37.77;21.61;97781.88;5135349;27;20058;-47
2023/08/02 07:55:46;;;;;;;6.00;4.38;;;;;;;37.03;22.44;97798.41;5135219;27;20035;-48
2023/08/02 07:58:11;;;;;;;5.18;2.70;;;;;;;36.31;23.52;97795.91;5134209;27;20524;-47
2023/08/02 08:00:38;;;;;;;7.60;3.00;;;;;;;36.23;23.79;97782.66;5135267;27;20023;-47
2023/08/02 08:03:04;;;;;;;4.90;2.83;;;;;;;36.04;24.29;97795.53;5133878;27;20106;-47
2023/08/02 08:05:30;;;;;;;4.72;2.30;;;;;;;36.10;24.33;97788.50;5134859;27;20469;-47
2023/08/02 08:07:56;;;;;;;7.63;2.55;;;;;;;36.13;24.39;97781.47;5133855;27;20496;-47
2023/08/02 08:10:22;;;;;;;7.88;2.92;;;;;;;35.93;24.84;97787.34;5135263;27;20031;-47
2023/08/02 08:12:47;;;;;;;5.50;2.00;;;;;;;36.17;24.75;97787.72;5135065;27;20058;-47
2023/08/02 08:15:13;;;;;;;21.23;3.05;;;;;;;36.29;24.74;97787.31;5135041;27;20058;-47
2023/08/02 08:17:39;;;;;;;7.18;3.17;;;;;;;36.39;23.93;97783.78;5133529;27;20516;-47
2023/08/02 08:20:05;;;;;;;4.13;2.30;;;;;;;36.41;23.44;97782.59;5134935;27;20571;-47
2023/08/02 08:22:31;;;;;;;5.97;2.60;;;;;;;36.34;23.92;97786.91;5134846;27;20031;-47
2023/08/02 08:24:57;;;;;;;5.68;2.85;;;;;;;36.62;23.70;97773.53;5133470;27;20035;-47
2023/08/02 08:27:23;;;;;;;4.57;3.35;;;;;;;37.00;22.63;97766.34;5134975;27;20027;-47
2023/08/02 08:29:49;;;;;;;5.18;3.20;;;;;;;37.43;22.87;97776.28;5133398;27;20393;-47
2023/08/02 08:32:15;;;;;;;5.57;2.63;;;;;;;37.26;22.66;97767.00;5134663;27;20515;-47
2023/08/02 08:34:42;;;;;;;4.88;3.00;;;;;;;37.31;22.37;97767.38;5134595;27;20027;-47
2023/08/02 08:37:08;;;;;;;11.13;3.50;;;;;;;37.66;22.62;97751.88;5134449;27;20027;-47
2023/08/02 08:39:35;;;;;;;6.53;3.03;;;;;;;38.23;21.94;97750.56;5134477;27;20027;-47
2023/08/02 08:42:06;;;;;;;4.22;2.67;;;;;;;38.85;21.46;97750.63;5134461;27;20027;-47
2023/08/02 08:44:35;;;;;;;4.38;2.83;;;;;;;39.42;20.42;97749.84;5134371;27;20515;-47
2023/08/02 08:47:03;;;;;;;5.03;3.15;;;;;;;39.62;20.64;97746.38;5134629;27;20428;-47
2023/08/02 08:49:29;;;;;;;10.27;3.78;;;;;;;40.03;19.84;97745.31;5134292;27;20136;-48
2023/08/02 08:51:58;;;;;;;11.23;4.22;;;;;;;40.42;19.86;97752.81;5134283;27;20533;-48
2023/08/02 08:54:27;;;;;;;7.53;3.35;;;;;;;40.44;19.35;97750.41;5134180;27;20111;-48
2023/08/02 08:56:55;;;;;;;19.90;4.53;;;;;;;40.08;19.11;97751.06;5134067;27;20023;-48
2023/08/02 08:59:21;;;;;;;10.18;3.38;;;;;;;39.09;20.24;97752.25;5132801;27;20033;-48
2023/08/02 09:01:47;;;;;;;7.53;3.78;;;;;;;38.21;20.94;97747.44;5134025;27;20019;-48
2023/08/02 09:04:13;;;;;;;4.13;2.88;;;;;;;38.36;21.22;97737.13;5134005;27;20023;-48
2023/08/02 09:06:39;;;;;;;17.20;3.67;;;;;;;38.87;20.58;97731.78;5132357;27;20050;-48
2023/08/02 09:09:04;;;;;;;6.10;3.17;;;;;;;39.34;20.34;97720.91;5132310;27;20468;-48
2023/08/02 09:11:30;;;;;;;7.78;3.38;;;;;;;40.23;19.62;97720.56;5132457;27;20305;-48
2023/08/02 09:14:22;;;;;;;5.20;3.47;;;;;;;41.05;18.54;97726.31;5133780;27;20031;-48
2023/08/02 09:16:57;;;;;;;10.95;3.53;;;;;;;40.75;18.03;97695.19;5129383;27;20031;-48
2023/08/02 09:19:26;;;;;;;6.05;3.10;;;;;;;39.74;19.36;97701.81;5133743;27;20033;-48
2023/08/02 09:22:08;;;;;;;4.47;3.22;;;;;;;39.65;19.39;97698.84;5133676;27;20019;-48
2023/08/02 09:24:36;;;;;;;5.80;3.30;;;;;;;39.45;19.63;97707.81;5133910;27;20392;-48
2023/08/02 09:27:04;;;;;;;5.68;3.42;;;;;;;39.25;19.91;97695.97;5133607;27;20446;-48
2023/08/02 09:29:47;;;;;;;3.28;2.95;;;;;;;39.40;19.51;97688.25;5115272;27;20039;-48
2023/08/02 09:32:14;;;;;;;8.32;4.03;;;;;;;39.44;20.07;97686.25;5133448;27;20504;-49
2023/08/02 09:34:47;;;;;;;6.85;3.40;;;;;;;39.30;19.62;97682.53;5133751;27;20024;-48
2023/08/02 09:37:17;;;;;;;8.10;3.28;;;;;;;39.25;19.60;97674.78;5133344;27;20030;-48
2023/08/02 09:39:52;;;;;;;3.85;3.10;;;;;;;39.15;19.60;97662.78;5133288;27;20388;-48
2023/08/02 09:42:21;;;;;;;5.60;3.15;;;;;;;39.03;20.12;97670.81;5133244;27;20015;-48
2023/08/02 09:44:53;;;;;;;5.53;3.75;;;;;;;38.98;19.87;97680.31;5133293;27;20023;-47
2023/08/02 09:47:19;;;;;;;4.82;2.83;;;;;;;38.95;19.88;97664.63;5131945;27;20023;-48
2023/08/02 09:49:45;;;;;;;4.70;3.35;;;;;;;38.94;20.65;97665.84;5133504;27;20083;-48
2023/08/02 09:52:26;;;;;;;8.77;3.60;;;;;;;38.69;20.58;97666.97;5131816;27;20031;-48
2023/08/02 09:54:52;;;;;;;8.60;3.50;;;;;;;38.66;20.53;97678.00;5133203;27;20396;-48
2023/08/02 09:57:20;;;;;;;5.85;3.22;;;;;;;38.64;20.87;97667.44;5133057;27;20426;-48
2023/08/02 09:59:46;;;;;;;3.58;3.28;;;;;;;38.85;20.90;97666.34;5133080;27;20034;-48
2023/08/02 10:02:14;;;;;;;9.90;3.70;;;;;;;39.34;20.23;97664.03;5131729;27;20022;-48
2023/08/02 10:04:42;;;;;;;9.10;3.47;;;;;;;39.09;19.80;97661.69;5132935;27;20034;-48
2023/08/02 10:07:12;;;;;;;7.03;3.20;;;;;;;38.75;20.13;97667.28;5131393;27;20051;-48
2023/08/02 10:09:38;;;;;;;6.32;3.13;;;;;;;38.18;20.59;97655.09;5132973;27;20479;-48
2023/08/02 10:12:10;;;;;;;9.45;3.80;;;;;;;37.63;20.79;97653.31;5114588;27;20034;-48
2023/08/02 10:14:36;;;;;;;13.25;4.10;;;;;;;37.61;20.89;97651.00;5132897;27;20023;-48
2023/08/02 10:17:03;;;;;;;5.15;3.30;;;;;;;37.57;21.39;97637.31;5114334;27;20136;-48
2023/08/02 10:19:34;;;;;;;8.50;3.90;;;;;;;37.24;20.96;97630.59;5131498;27;20015;-48
2023/08/02 10:22:01;;;;;;;6.28;3.63;;;;;;;37.40;21.31;97634.75;5132365;27;20027;-48
2023/08/02 10:24:28;;;;;;;7.63;3.40;;;;;;;37.68;21.15;97623.53;5131513;28;20023;-48
2023/08/02 10:27:01;;;;;;;7.97;3.72;;;;;;;37.83;20.43;97623.38;5132994;27;20034;-47
2023/08/02 10:29:28;;;;;;;12.27;3.60;;;;;;;37.84;20.75;97624.94;5131404;28;20023;-48
2023/08/02 10:31:57;;;;;;;11.32;4.82;;;;;;;38.17;20.82;97626.13;5132661;27;20019;-48
2023/08/02 10:34:35;;;;;;;4.95;3.28;;;;;;;38.44;20.02;97625.41;5131453;28;20072;-48
2023/08/02 10:37:02;;;;;;;7.00;3.47;;;;;;;37.85;20.44;97629.22;5132795;28;20099;-48
2023/08/02 10:39:45;;;;;;;5.10;3.17;;;;;;;37.15;20.57;97603.69;5132561;27;20023;-48
2023/08/02 10:42:15;;;;;;;4.38;3.22;;;;;;;36.87;21.91;97606.66;5131226;28;20114;-47
2023/08/02 10:44:56;;;;;;;6.30;3.53;;;;;;;36.95;22.15;97622.59;5132560;27;20027;-47
2023/08/02 10:47:30;;;;;;;7.18;3.63;;;;;;;37.34;21.94;97618.75;5131099;28;20027;-48
2023/08/02 10:49:56;;;;;;;7.63;3.78;;;;;;;37.98;21.49;97624.78;5132862;27;20023;-47
2023/08/02 10:52:26;;;;;;;21.20;3.50;;;;;;;37.63;21.06;97624.00;5132437;27;20035;-47
2023/08/02 10:55:19;;;;;;;11.73;4.40;;;;;;;37.48;21.75;97604.16;5132361;27;20023;-48
2023/08/02 10:57:56;;;;;;;6.57;3.28;;;;;;;37.35;21.19;97608.63;5129996;27;20132;-48
2023/08/02 11:00:29;;;;;;;8.85;3.22;;;;;;;36.81;21.02;97622.72;5132370;27;20023;-47
2023/08/02 11:02:55;;;;;;;10.68;3.97;;;;;;;36.57;21.20;97627.91;5132489;27;20573;-47
2023/08/02 11:05:42;;;;;;;7.55;3.30;;;;;;;36.17;22.05;97629.28;5132039;27;20122;-47
2023/08/02 11:08:09;;;;;;;9.73;3.80;;;;;;;36.38;22.23;97620.19;5131024;28;20369;-47
2023/08/02 11:10:54;;;;;;;6.65;2.85;;;;;;;36.94;21.91;97603.84;5132201;27;20023;-47
2023/08/02 11:13:23;;;;;;;7.28;2.92;;;;;;;37.13;20.84;97616.25;5132331;27;20015;-48
2023/08/02 11:16:04;;;;;;;5.63;3.28;;;;;;;36.65;21.84;97601.34;5132178;27;20051;-48
2023/08/02 11:18:34;;;;;;;4.90;3.50;;;;;;;36.29;21.47;97598.00;5132229;27;20043;-47
2023/08/02 11:21:09;;;;;;;10.15;3.28;;;;;;;36.06;22.12;97584.81;5132295;27;20027;-47
2023/08/02 11:23:36;;;;;;;3.88;3.38;;;;;;;36.29;21.78;97593.31;5130889;28;20027;-48
2023/08/02 11:26:15;;;;;;;3.60;2.78;;;;;;;36.59;21.75;97559.94;5132414;27;20054;-46
2023/08/02 11:28:48;;;;;;;4.38;3.40;;;;;;;36.83;21.55;97570.34;5132254;27;20084;-46
2023/08/02 11:31:14;;;;;;;5.85;3.42;;;;;;;36.87;21.17;97569.13;5132037;27;20015;-47
2023/08/02 11:33:41;;;;;;;4.90;3.05;;;;;;;36.94;21.61;97560.84;5134801;27;20464;-47